PWF312 EDDH-LGTS
Flight info
| Callsign | PWF312 |
|---|---|
| Flight time | N/A |
| Altitude | 27000 |
| Route | AMLUH2G AMLUH M852 DENIX DCT ZUCKA DCT ALOSO DCT ABERU T703 ARMUT DCT LULAR DCT DEXIT DCT BOSNA DCT AKIKA DCT ENFAR DCT PEP DCT TALAS N130 ALIKO |
| Aircraft | B350/L-SBGRW/S |
Departure
| Time | 2026-05-04 09:08 |
|---|---|
| Airport | Hamburg Helmut Schmidt Airport (EDDH) |
Arrival
| Time | N/A |
|---|---|
| Airport | Thessaloniki Macedonia International Airport (LGTS) |
| Time | Latitude | Longitude | Altitude | Speed | Heading |
|---|---|---|---|---|---|
| 2026-05-04 09:03 | 53.62617 | 9.98793 | 43 ft | 0 kts | 63° |
| 2026-05-04 09:04 | 53.62637 | 9.98797 | 43 ft | 8 kts | 319° |
| 2026-05-04 09:04 | 53.62679 | 9.98712 | 43 ft | 0 kts | 308° |
| 2026-05-04 09:04 | 53.62680 | 9.98692 | 43 ft | 7 kts | 233° |
| 2026-05-04 09:04 | 53.62601 | 9.98728 | 43 ft | 16 kts | 153° |
| 2026-05-04 09:05 | 53.62528 | 9.98892 | 43 ft | 21 kts | 71° |
| 2026-05-04 09:05 | 53.62569 | 9.99145 | 43 ft | 22 kts | 79° |
| 2026-05-04 09:05 | 53.62595 | 9.99371 | 43 ft | 21 kts | 79° |
| 2026-05-04 09:05 | 53.62626 | 9.99602 | 43 ft | 15 kts | 81° |
| 2026-05-04 09:06 | 53.62635 | 9.99727 | 43 ft | 0 kts | 78° |
| 2026-05-04 09:07 | 53.64629 | 9.98277 | 249 ft | 139 kts | 333° |
| 2026-05-04 09:08 | 53.65518 | 9.97499 | 477 ft | 146 kts | 325° |
| 2026-05-04 09:08 | 53.66384 | 9.96518 | 703 ft | 151 kts | 325° |
| 2026-05-04 09:08 | 53.67309 | 9.95615 | 884 ft | 161 kts | 332° |
| 2026-05-04 09:08 | 53.68430 | 9.94951 | 903 ft | 182 kts | 344° |
| 2026-05-04 09:09 | 53.69732 | 9.94623 | 924 ft | 195 kts | 358° |
| 2026-05-04 09:09 | 53.71013 | 9.95423 | 930 ft | 205 kts | 37° |
| 2026-05-04 09:09 | 53.72045 | 9.97099 | 982 ft | 210 kts | 47° |
| 2026-05-04 09:09 | 53.72928 | 9.99102 | 1015 ft | 214 kts | 59° |
| 2026-05-04 09:10 | 53.73616 | 10.01358 | 1062 ft | 215 kts | 68° |
| 2026-05-04 09:10 | 53.73787 | 10.03796 | 1309 ft | 208 kts | 97° |
| 2026-05-04 09:10 | 53.73398 | 10.06060 | 1720 ft | 195 kts | 116° |
| 2026-05-04 09:10 | 53.72744 | 10.08052 | 2017 ft | 192 kts | 124° |
| 2026-05-04 09:11 | 53.72056 | 10.09963 | 2251 ft | 194 kts | 122° |
| 2026-05-04 09:11 | 53.71401 | 10.11970 | 2501 ft | 196 kts | 121° |
| 2026-05-04 09:11 | 53.70734 | 10.14003 | 2718 ft | 198 kts | 122° |
| 2026-05-04 09:11 | 53.70059 | 10.16006 | 2921 ft | 199 kts | 122° |
| 2026-05-04 09:12 | 53.69374 | 10.18047 | 3156 ft | 199 kts | 123° |
| 2026-05-04 09:12 | 53.68385 | 10.19595 | 3385 ft | 194 kts | 153° |
| 2026-05-04 09:14 | 53.59432 | 10.24698 | 4806 ft | 196 kts | 170° |
| 2026-05-04 09:14 | 53.58106 | 10.25298 | 5027 ft | 197 kts | 170° |
| 2026-05-04 09:14 | 53.56778 | 10.25915 | 5237 ft | 197 kts | 170° |
| 2026-05-04 09:14 | 53.55468 | 10.26513 | 5436 ft | 197 kts | 171° |
| 2026-05-04 09:15 | 53.54137 | 10.27121 | 5626 ft | 198 kts | 170° |
| 2026-05-04 09:15 | 53.52804 | 10.27732 | 5827 ft | 198 kts | 170° |
| 2026-05-04 09:15 | 53.51484 | 10.28335 | 6009 ft | 198 kts | 170° |
| 2026-05-04 09:15 | 53.50148 | 10.28947 | 6198 ft | 199 kts | 171° |
| 2026-05-04 09:17 | 53.39383 | 10.33835 | 7571 ft | 202 kts | 171° |
| 2026-05-04 09:18 | 53.38019 | 10.34449 | 7737 ft | 202 kts | 171° |
| 2026-05-04 09:18 | 53.36671 | 10.35055 | 7894 ft | 203 kts | 171° |
| 2026-05-04 09:18 | 53.35304 | 10.35671 | 8054 ft | 203 kts | 171° |
| 2026-05-04 09:18 | 53.33930 | 10.36287 | 8211 ft | 204 kts | 171° |
| 2026-05-04 09:19 | 53.32555 | 10.36904 | 8364 ft | 204 kts | 171° |
| 2026-05-04 09:19 | 53.31191 | 10.37517 | 8527 ft | 205 kts | 171° |
| 2026-05-04 09:19 | 53.29812 | 10.38136 | 8690 ft | 205 kts | 171° |
| 2026-05-04 09:19 | 53.28434 | 10.38752 | 8853 ft | 205 kts | 171° |
| 2026-05-04 09:20 | 53.27065 | 10.39363 | 8995 ft | 206 kts | 171° |
| 2026-05-04 09:20 | 53.25677 | 10.39987 | 9152 ft | 206 kts | 171° |
| 2026-05-04 09:20 | 53.24283 | 10.40611 | 9301 ft | 206 kts | 171° |
| 2026-05-04 09:20 | 53.22907 | 10.41224 | 9451 ft | 206 kts | 171° |
| 2026-05-04 09:21 | 53.21512 | 10.41848 | 9595 ft | 207 kts | 171° |
| 2026-05-04 09:21 | 53.20133 | 10.42464 | 9748 ft | 207 kts | 171° |
| 2026-05-04 09:21 | 53.18740 | 10.43084 | 9893 ft | 207 kts | 171° |
| 2026-05-04 09:21 | 53.17337 | 10.43710 | 10028 ft | 208 kts | 171° |
| 2026-05-04 09:22 | 53.15933 | 10.44334 | 10195 ft | 208 kts | 171° |
| 2026-05-04 09:22 | 53.14550 | 10.44952 | 10357 ft | 208 kts | 171° |
| 2026-05-04 09:22 | 53.13140 | 10.45594 | 10513 ft | 209 kts | 171° |
| 2026-05-04 09:22 | 53.11740 | 10.46081 | 10653 ft | 207 kts | 177° |
| 2026-05-04 09:23 | 53.10310 | 10.46480 | 10802 ft | 207 kts | 176° |
| 2026-05-04 09:23 | 53.08904 | 10.46932 | 10973 ft | 208 kts | 175° |
| 2026-05-04 09:23 | 53.07475 | 10.47387 | 11164 ft | 209 kts | 176° |
| 2026-05-04 09:23 | 53.06037 | 10.47826 | 11358 ft | 209 kts | 176° |
| 2026-05-04 09:25 | 52.95990 | 10.50950 | 12276 ft | 211 kts | 176° |
| 2026-05-04 09:25 | 52.94534 | 10.51403 | 12396 ft | 211 kts | 176° |
| 2026-05-04 09:26 | 52.93107 | 10.51844 | 12513 ft | 211 kts | 176° |
| 2026-05-04 09:26 | 52.91658 | 10.52292 | 12625 ft | 212 kts | 176° |
| 2026-05-04 09:26 | 52.90204 | 10.52742 | 12731 ft | 212 kts | 176° |
| 2026-05-04 09:26 | 52.88751 | 10.53192 | 12840 ft | 212 kts | 176° |
| 2026-05-04 09:27 | 52.87309 | 10.53637 | 12950 ft | 213 kts | 176° |
| 2026-05-04 09:27 | 52.85846 | 10.54088 | 13062 ft | 213 kts | 176° |
| 2026-05-04 09:27 | 52.84390 | 10.54538 | 13166 ft | 213 kts | 176° |
| 2026-05-04 09:27 | 52.82928 | 10.54989 | 13280 ft | 213 kts | 176° |
| 2026-05-04 09:28 | 52.81475 | 10.55435 | 13387 ft | 214 kts | 176° |
| 2026-05-04 09:28 | 52.80007 | 10.55887 | 13493 ft | 214 kts | 176° |
| 2026-05-04 09:28 | 52.78557 | 10.56333 | 13603 ft | 214 kts | 176° |
| 2026-05-04 09:28 | 52.77094 | 10.56784 | 13778 ft | 214 kts | 176° |
| 2026-05-04 09:29 | 52.75615 | 10.57238 | 13920 ft | 215 kts | 176° |
| 2026-05-04 09:29 | 52.74151 | 10.57686 | 14050 ft | 215 kts | 176° |
| 2026-05-04 09:29 | 52.72695 | 10.58134 | 14202 ft | 214 kts | 176° |
| 2026-05-04 09:29 | 52.71218 | 10.58588 | 14356 ft | 216 kts | 176° |
| 2026-05-04 09:30 | 52.69736 | 10.59042 | 14465 ft | 215 kts | 176° |
| 2026-05-04 09:30 | 52.68277 | 10.59487 | 14552 ft | 215 kts | 176° |
| 2026-05-04 09:30 | 52.66795 | 10.59940 | 14640 ft | 215 kts | 176° |
| 2026-05-04 09:30 | 52.65320 | 10.60392 | 14729 ft | 215 kts | 176° |
| 2026-05-04 09:31 | 52.63851 | 10.60841 | 14814 ft | 216 kts | 176° |
| 2026-05-04 09:31 | 52.62370 | 10.61293 | 14899 ft | 216 kts | 176° |
| 2026-05-04 09:31 | 52.60899 | 10.61743 | 14971 ft | 216 kts | 176° |
| 2026-05-04 09:31 | 52.59434 | 10.62187 | 15055 ft | 216 kts | 176° |
| 2026-05-04 09:32 | 52.57943 | 10.62643 | 15132 ft | 217 kts | 176° |
| 2026-05-04 09:32 | 52.56455 | 10.63095 | 15207 ft | 217 kts | 176° |
| 2026-05-04 09:34 | 52.46065 | 10.66251 | 15778 ft | 218 kts | 176° |
| 2026-05-04 09:34 | 52.44563 | 10.66705 | 15852 ft | 218 kts | 176° |
| 2026-05-04 09:34 | 52.43087 | 10.67151 | 15929 ft | 218 kts | 176° |
| 2026-05-04 09:34 | 52.41588 | 10.67605 | 15993 ft | 219 kts | 176° |
| 2026-05-04 09:35 | 52.40079 | 10.68061 | 16103 ft | 219 kts | 176° |
| 2026-05-04 09:35 | 52.38590 | 10.68510 | 16236 ft | 220 kts | 176° |
| 2026-05-04 09:35 | 52.37087 | 10.68965 | 16333 ft | 220 kts | 176° |
| 2026-05-04 09:35 | 52.35566 | 10.69423 | 16409 ft | 220 kts | 176° |
| 2026-05-04 09:37 | 52.25018 | 10.72595 | 16890 ft | 222 kts | 176° |
| 2026-05-04 09:37 | 52.23494 | 10.73052 | 16958 ft | 222 kts | 176° |
| 2026-05-04 09:38 | 52.21970 | 10.73509 | 17026 ft | 222 kts | 176° |
| 2026-05-04 09:38 | 52.20443 | 10.73966 | 17100 ft | 223 kts | 176° |
| 2026-05-04 09:38 | 52.18930 | 10.74418 | 17175 ft | 223 kts | 176° |
| 2026-05-04 09:38 | 52.17405 | 10.74875 | 17264 ft | 223 kts | 176° |
| 2026-05-04 09:39 | 52.15884 | 10.75330 | 17343 ft | 223 kts | 176° |
| 2026-05-04 09:39 | 52.14345 | 10.75789 | 17423 ft | 224 kts | 176° |
| 2026-05-04 09:39 | 52.12796 | 10.76250 | 17430 ft | 227 kts | 176° |
| 2026-05-04 09:39 | 52.11247 | 10.76711 | 17435 ft | 229 kts | 176° |
| 2026-05-04 09:40 | 52.09660 | 10.77186 | 17451 ft | 231 kts | 176° |
| 2026-05-04 09:40 | 52.08090 | 10.77654 | 17471 ft | 232 kts | 176° |
| 2026-05-04 09:40 | 52.06508 | 10.78124 | 17485 ft | 232 kts | 176° |
| 2026-05-04 09:40 | 52.04911 | 10.78599 | 17499 ft | 233 kts | 176° |
| 2026-05-04 09:41 | 52.03309 | 10.79076 | 17503 ft | 234 kts | 176° |